Urussanga, Brazil
Current Conditions -  °F | °C
As of 1:00 PM on Saturday 22 Nov 2014 (Local Time) from SBCM Reporting Station
Broken Clouds Broken Clouds  
Wind Chill: 88°   Ceiling: 3000
Heat Index: 93°   Visibility: 6mi
Dew Point: 70°   Wind: 8mph
Humidity: 55%   Direction: 240°WSW
Pressure: 29.74"   Gusts: NA
Location:  28.52°S, 49.32°W
Report Text: SBCM 221500Z 24007KT 9999 BKN030 31/21 Q1007
Loading
Personal Weather Stations






























Interactive Weather Map New forecast layout! Learn more

10-Day Weather Forecast

Advertisements
Track Severe Weather on mobile